createdAt,value
2022-11-24T00:01:31.535Z,10.54
2022-11-24T00:04:02.284Z,10.36
2022-11-24T00:06:32.593Z,10.18
2022-11-24T00:09:04.857Z,10.24
2022-11-24T00:11:35.768Z,10.29
2022-11-24T00:14:05.122Z,10.20
2022-11-24T00:16:38.150Z,10.25
2022-11-24T00:19:09.805Z,10.36
2022-11-24T00:21:38.760Z,10.72
2022-11-24T00:24:07.042Z,10.50
2022-11-24T00:26:37.377Z,10.35
2022-11-24T00:29:07.775Z,10.62
2022-11-24T00:31:40.896Z,10.49
2022-11-24T00:34:12.751Z,10.39
2022-11-24T00:36:41.899Z,10.58
2022-11-24T00:39:14.354Z,10.93
2022-11-24T00:41:43.350Z,11.51
2022-11-24T00:44:10.927Z,10.79
2022-11-24T00:46:38.762Z,10.54
2022-11-24T00:49:06.471Z,10.41
2022-11-24T00:51:34.607Z,10.10
2022-11-24T00:54:02.930Z,10.06
2022-11-24T00:56:31.126Z,10.03
2022-11-24T00:58:58.803Z,10.04
2022-11-24T01:01:31.123Z,10.07
2022-11-24T01:04:03.405Z,10.12
2022-11-24T01:06:32.596Z,10.07
2022-11-24T01:09:00.729Z,10.27
2022-11-24T01:11:52.208Z,10.53
2022-11-24T01:14:20.961Z,10.34
2022-11-24T01:16:48.561Z,10.73
2022-11-24T01:19:16.294Z,10.46
2022-11-24T01:21:43.943Z,10.40
2022-11-24T01:24:12.287Z,10.47
2022-11-24T01:26:39.847Z,10.42
2022-11-24T01:29:07.421Z,10.74
2022-11-24T01:31:36.975Z,10.61
2022-11-24T01:34:04.602Z,10.58
2022-11-24T01:36:32.119Z,10.59
2022-11-24T01:38:59.781Z,10.60
2022-11-24T01:41:28.012Z,10.65
2022-11-24T01:43:57.060Z,10.48
2022-11-24T01:46:47.029Z,10.40
2022-11-24T01:49:22.682Z,10.46
2022-11-24T01:52:27.549Z,10.86
2022-11-24T01:55:04.136Z,10.79
2022-11-24T01:58:01.053Z,10.64
2022-11-24T02:00:28.654Z,10.56
2022-11-24T02:02:56.435Z,10.63
2022-11-24T02:06:11.985Z,10.44
2022-11-24T02:08:49.249Z,10.45
2022-11-24T02:11:16.872Z,10.57
2022-11-24T02:13:46.475Z,10.49
2022-11-24T02:16:14.007Z,10.57
2022-11-24T02:18:43.330Z,10.83
2022-11-24T02:21:13.806Z,10.98
2022-11-24T02:24:32.391Z,10.75
2022-11-24T02:27:00.246Z,10.85
2022-11-24T02:29:27.832Z,10.73
2022-11-24T02:32:06.482Z,10.63
2022-11-24T02:34:34.573Z,10.45
2022-11-24T02:37:02.465Z,10.27
2022-11-24T02:39:30.101Z,10.17
2022-11-24T02:42:06.559Z,10.22
2022-11-24T02:44:41.144Z,10.23
2022-11-24T02:47:13.783Z,10.14
2022-11-24T02:49:41.789Z,9.97
2022-11-24T02:52:09.576Z,10.01
2022-11-24T02:54:37.344Z,9.95
2022-11-24T02:57:05.130Z,9.78
2022-11-24T02:59:32.687Z,9.76
2022-11-24T03:02:00.286Z,9.53
2022-11-24T03:04:27.804Z,9.56
2022-11-24T03:06:55.878Z,9.50
2022-11-24T03:09:23.438Z,9.55
2022-11-24T03:11:50.950Z,9.49
2022-11-24T03:14:18.507Z,9.48
2022-11-24T03:16:45.977Z,9.35
2022-11-24T03:19:13.663Z,9.32
2022-11-24T03:21:41.299Z,9.29
2022-11-24T03:24:09.123Z,9.14
2022-11-24T03:26:36.685Z,9.11
2022-11-24T03:29:04.326Z,9.12
2022-11-24T03:31:31.891Z,9.23
2022-11-24T03:33:59.550Z,9.20
2022-11-24T03:36:27.370Z,9.35
2022-11-24T03:38:54.976Z,9.25
2022-11-24T03:41:22.451Z,9.10
2022-11-24T03:43:49.918Z,9.03
2022-11-24T03:46:17.503Z,8.76
2022-11-24T03:48:45.008Z,8.85
2022-11-24T03:51:12.558Z,8.92
2022-11-24T03:53:40.390Z,8.74
2022-11-24T03:56:08.176Z,9.09
2022-11-24T03:58:36.147Z,9.14
2022-11-24T04:01:03.898Z,8.91
2022-11-24T04:03:31.741Z,8.78
2022-11-24T04:05:59.342Z,8.80
2022-11-24T04:08:26.864Z,8.95
2022-11-24T04:10:55.331Z,9.60
2022-11-24T04:13:26.252Z,9.02
2022-11-24T04:15:55.012Z,8.90
2022-11-24T04:18:22.799Z,8.78
2022-11-24T04:20:52.407Z,8.61
2022-11-24T04:23:21.030Z,8.54
2022-11-24T04:25:50.339Z,8.66
2022-11-24T04:28:18.865Z,8.75
2022-11-24T04:30:46.372Z,8.66
2022-11-24T04:33:14.451Z,8.69
2022-11-24T04:35:42.053Z,8.83
2022-11-24T04:38:09.626Z,8.94
2022-11-24T04:40:38.350Z,9.16
2022-11-24T04:43:05.997Z,9.61
2022-11-24T04:45:33.432Z,9.47
2022-11-24T04:48:00.928Z,9.82
2022-11-24T04:50:28.413Z,9.33
2022-11-24T04:52:56.096Z,9.26
2022-11-24T04:55:23.722Z,9.30
2022-11-24T04:57:51.243Z,9.09
2022-11-24T05:00:19.638Z,9.38
2022-11-24T05:02:47.205Z,9.42
2022-11-24T05:05:14.942Z,9.89
2022-11-24T05:07:42.470Z,9.86
2022-11-24T05:10:28.445Z,9.82
2022-11-24T05:12:59.335Z,9.52
2022-11-24T05:15:27.144Z,9.63
2022-11-24T05:17:55.225Z,9.58
2022-11-24T05:20:22.841Z,9.59
2022-11-24T05:22:50.556Z,9.64
2022-11-24T05:25:18.438Z,9.45
2022-11-24T05:27:46.044Z,9.50
2022-11-24T05:30:14.095Z,9.43
2022-11-24T05:32:41.599Z,9.45
2022-11-24T05:35:09.887Z,9.46
2022-11-24T05:37:37.999Z,9.56
2022-11-24T05:40:07.197Z,9.53
2022-11-24T05:42:46.234Z,9.61
2022-11-24T05:45:21.216Z,10.09
2022-11-24T05:47:51.419Z,9.96
2022-11-24T05:50:22.167Z,9.88
2022-11-24T05:52:50.749Z,9.86
2022-11-24T05:55:19.704Z,9.84
2022-11-24T05:57:47.343Z,10.09
2022-11-24T06:00:18.044Z,10.01
2022-11-24T06:02:45.713Z,9.97
2022-11-24T06:05:13.292Z,10.06
2022-11-24T06:07:41.466Z,10.07
2022-11-24T06:10:09.472Z,10.08
2022-11-24T06:12:37.073Z,10.13
2022-11-24T06:15:05.174Z,10.66
2022-11-24T06:17:32.673Z,10.56
2022-11-24T06:20:00.199Z,10.91
2022-11-24T06:22:27.931Z,10.59
2022-11-24T06:24:55.375Z,10.83
2022-11-24T06:27:23.193Z,10.74
2022-11-24T06:29:50.982Z,10.82
2022-11-24T06:32:18.776Z,10.82
2022-11-24T06:34:46.423Z,10.95
2022-11-24T06:37:13.914Z,10.65
2022-11-24T06:39:41.389Z,10.70
2022-11-24T06:42:08.876Z,10.49
2022-11-24T06:44:36.624Z,10.63
2022-11-24T06:47:04.262Z,10.52
2022-11-24T06:49:31.708Z,10.50
2022-11-24T06:51:59.180Z,10.29
2022-11-24T06:54:26.708Z,10.38
2022-11-24T06:56:59.030Z,10.43
2022-11-24T06:59:27.740Z,10.39
2022-11-24T07:01:55.432Z,10.34
2022-11-24T07:04:22.984Z,10.51
2022-11-24T07:06:50.479Z,10.61
2022-11-24T07:09:17.956Z,10.69
2022-11-24T07:11:45.437Z,10.73
2022-11-24T07:14:12.967Z,10.88
2022-11-24T07:16:40.961Z,10.91
2022-11-24T07:19:11.120Z,10.92
2022-11-24T07:21:38.665Z,10.87
2022-11-24T07:24:06.665Z,11.29
2022-11-24T07:26:37.491Z,11.29
2022-11-24T07:29:06.154Z,11.34
2022-11-24T07:31:33.734Z,11.33
2022-11-24T07:34:01.272Z,11.36
2022-11-24T07:36:28.888Z,12.01
2022-11-24T07:38:56.347Z,12.14
2022-11-24T07:41:23.911Z,12.00
2022-11-24T07:43:52.009Z,12.09
2022-11-24T07:46:21.011Z,12.16
2022-11-24T07:48:49.343Z,12.19
2022-11-24T07:51:17.309Z,12.51
2022-11-24T07:53:45.728Z,12.70
2022-11-24T07:56:13.451Z,12.92
2022-11-24T07:58:40.945Z,13.10
2022-11-24T08:01:17.677Z,13.73
2022-11-24T08:03:46.516Z,13.34
2022-11-24T08:06:25.077Z,13.19
2022-11-24T08:08:57.926Z,13.51
2022-11-24T08:11:26.217Z,13.55
2022-11-24T08:13:54.059Z,13.68
2022-11-24T08:16:21.829Z,13.88
2022-11-24T08:18:55.187Z,13.81
2022-11-24T08:21:23.691Z,14.05
2022-11-24T08:23:56.115Z,13.93
2022-11-24T08:26:25.246Z,13.92
2022-11-24T08:28:58.696Z,14.34
2022-11-24T08:31:33.349Z,14.42
2022-11-24T08:34:03.162Z,14.46
2022-11-24T08:36:31.168Z,14.74
2022-11-24T08:39:01.662Z,15.29
2022-11-24T08:41:30.552Z,15.06
2022-11-24T08:43:58.201Z,15.05
2022-11-24T08:46:25.952Z,15.28
2022-11-24T08:48:56.386Z,15.27
2022-11-24T08:51:27.000Z,15.71
2022-11-24T08:54:00.173Z,15.70
2022-11-24T08:56:29.925Z,15.91
2022-11-24T08:59:01.015Z,15.78
2022-11-24T09:01:29.613Z,15.65
2022-11-24T09:03:57.573Z,15.68
2022-11-24T09:06:30.254Z,15.63
2022-11-24T09:09:01.472Z,15.59
2022-11-24T09:11:30.809Z,15.81
2022-11-24T09:13:58.308Z,16.06
2022-11-24T09:16:29.067Z,16.15
2022-11-24T09:19:01.256Z,15.81
2022-11-24T09:21:30.779Z,15.47
2022-11-24T09:23:58.664Z,15.56
2022-11-24T09:26:29.857Z,15.78
2022-11-24T09:29:02.398Z,15.68
2022-11-24T09:31:36.087Z,16.19
2022-11-24T09:34:07.604Z,16.35
2022-11-24T09:36:35.922Z,16.10
2022-11-24T09:39:04.234Z,16.67
2022-11-24T09:41:31.644Z,16.48
2022-11-24T09:44:29.301Z,16.50
2022-11-24T09:47:32.845Z,16.29
2022-11-24T09:50:06.874Z,16.88
2022-11-24T09:53:04.114Z,17.07
2022-11-24T09:55:49.938Z,17.26
2022-11-24T09:58:41.503Z,17.59
2022-11-24T10:01:17.979Z,17.92
2022-11-24T10:03:50.960Z,17.78
2022-11-24T10:06:25.105Z,17.80
2022-11-24T10:09:23.768Z,18.18
2022-11-24T10:12:23.495Z,17.85
2022-11-24T10:15:02.581Z,17.89
2022-11-24T10:17:45.607Z,17.65
2022-11-24T10:20:39.817Z,17.90
2022-11-24T10:23:40.923Z,17.93
2022-11-24T10:26:39.848Z,17.92
2022-11-24T10:29:51.377Z,18.05
2022-11-24T10:32:37.170Z,18.95
2022-11-24T10:35:35.248Z,18.76
2022-11-24T10:38:22.116Z,18.87
2022-11-24T10:41:08.965Z,18.97
2022-11-24T10:43:36.457Z,18.52
2022-11-24T10:46:15.872Z,18.62
2022-11-24T10:48:53.518Z,18.96
2022-11-24T10:51:45.151Z,18.88
2022-11-24T10:54:20.295Z,18.63
2022-11-24T10:56:51.916Z,18.86
2022-11-24T10:59:37.613Z,18.63
2022-11-24T11:02:33.232Z,18.52
2022-11-24T11:05:35.398Z,18.25
2022-11-24T11:08:16.832Z,17.93
2022-11-24T11:10:46.713Z,17.89
2022-11-24T11:13:26.634Z,17.77
2022-11-24T11:15:55.877Z,18.47
2022-11-24T11:18:29.227Z,18.30
2022-11-24T11:21:01.920Z,18.04
2022-11-24T11:23:36.005Z,17.75
2022-11-24T11:26:25.530Z,18.14
2022-11-24T11:34:55.895Z,18.27
2022-11-24T11:37:31.460Z,18.27
2022-11-24T11:39:59.577Z,18.38
2022-11-24T11:43:01.368Z,18.81
2022-11-24T11:45:43.628Z,19.01
2022-11-24T11:48:42.413Z,19.25
2022-11-24T11:52:17.307Z,19.78
2022-11-24T11:55:13.759Z,19.87
2022-11-24T11:58:08.598Z,19.59
2022-11-24T12:00:42.600Z,18.94
2022-11-24T12:03:17.141Z,18.91
2022-11-24T12:06:22.739Z,18.99
2022-11-24T12:09:21.538Z,18.53
2022-11-24T12:12:23.962Z,18.56
2022-11-24T12:15:32.880Z,18.37
2022-11-24T12:18:54.990Z,18.50
2022-11-24T12:21:26.846Z,18.26
2022-11-24T12:24:37.215Z,18.25
2022-11-24T12:27:26.472Z,18.53
2022-11-24T12:30:05.423Z,18.55
2022-11-24T12:32:53.499Z,18.91
2022-11-24T12:35:28.739Z,18.39
2022-11-24T12:38:28.621Z,18.34
2022-11-24T12:41:42.015Z,18.66
2022-11-24T12:44:39.366Z,19.23
2022-11-24T12:47:23.869Z,18.79
2022-11-24T12:50:20.247Z,17.94
2022-11-24T12:53:10.543Z,17.41
2022-11-24T12:55:39.530Z,17.26
2022-11-24T12:58:27.839Z,17.01
2022-11-24T13:01:23.029Z,16.80
2022-11-24T13:04:11.912Z,16.36
2022-11-24T13:07:31.504Z,16.06
2022-11-24T13:13:19.114Z,15.88
2022-11-24T13:19:20.447Z,15.56
2022-11-24T13:21:59.845Z,15.18
2022-11-24T13:24:32.084Z,15.17
2022-11-24T13:27:15.253Z,15.46
2022-11-24T13:29:45.447Z,15.23
2022-11-24T13:32:13.077Z,15.06
2022-11-24T13:34:40.539Z,15.11
2022-11-24T13:37:31.564Z,14.83
2022-11-24T13:40:12.433Z,14.56
2022-11-24T13:42:57.965Z,14.22
2022-11-24T13:45:41.031Z,14.25
2022-11-24T13:48:21.709Z,14.32
2022-11-24T13:50:56.209Z,14.27
2022-11-24T13:53:48.320Z,14.14
2022-11-24T13:56:15.730Z,14.00
2022-11-24T13:58:59.020Z,13.87
2022-11-24T14:01:33.357Z,14.00
2022-11-24T14:04:43.200Z,14.26
2022-11-24T14:07:15.274Z,14.58
2022-11-24T14:09:45.580Z,14.25
2022-11-24T14:12:25.408Z,14.00
2022-11-24T14:14:57.403Z,13.99
2022-11-24T14:17:28.845Z,13.73
2022-11-24T14:19:58.437Z,13.69
2022-11-24T14:22:37.184Z,13.64
2022-11-24T14:25:05.928Z,13.66
2022-11-24T14:27:37.780Z,13.44
2022-11-24T14:30:13.455Z,13.25
2022-11-24T14:32:45.609Z,13.00
2022-11-24T14:35:23.441Z,13.18
2022-11-24T14:37:51.337Z,13.03
2022-11-24T14:40:48.418Z,12.92
2022-11-24T14:43:34.671Z,12.92
2022-11-24T14:46:09.407Z,13.02
2022-11-24T14:48:57.947Z,12.96
2022-11-24T14:51:30.750Z,12.78
2022-11-24T14:54:02.516Z,13.10
2022-11-24T14:56:36.453Z,13.16
2022-11-24T14:59:20.492Z,13.03
2022-11-24T15:01:48.093Z,12.84
2022-11-24T15:07:26.702Z,12.72
2022-11-24T15:10:00.452Z,12.49
2022-11-24T15:12:41.828Z,12.33
2022-11-24T15:15:15.187Z,12.37
2022-11-24T15:18:00.110Z,12.34
2022-11-24T15:20:42.284Z,12.14
2022-11-24T15:23:33.875Z,12.25
2022-11-24T15:26:04.831Z,12.14
2022-11-24T15:28:32.735Z,11.93
2022-11-24T15:31:03.643Z,12.08
2022-11-24T15:33:33.129Z,11.77
2022-11-24T15:36:00.871Z,11.68
2022-11-24T15:38:30.118Z,11.62
2022-11-24T15:41:01.208Z,11.61
2022-11-24T15:43:37.866Z,11.61
2022-11-24T15:46:06.849Z,11.44
2022-11-24T15:48:35.801Z,11.61
2022-11-24T15:51:09.333Z,11.46
2022-11-24T15:54:01.044Z,11.45
2022-11-24T15:56:34.240Z,11.26
2022-11-24T15:59:03.258Z,11.33
2022-11-24T16:01:34.719Z,11.40
2022-11-24T16:04:03.899Z,11.28
2022-11-24T16:06:33.738Z,11.34
2022-11-24T16:09:01.581Z,11.03
2022-11-24T16:11:31.426Z,11.23
2022-11-24T16:13:59.250Z,11.27
2022-11-24T16:16:30.655Z,11.11
2022-11-24T16:18:58.480Z,11.17
2022-11-24T16:21:27.870Z,10.87
2022-11-24T16:23:58.451Z,10.93
2022-11-24T16:26:26.102Z,11.04
2022-11-24T16:28:58.757Z,10.96
2022-11-24T16:31:29.536Z,11.06
2022-11-24T16:34:03.786Z,10.67
2022-11-24T16:36:33.931Z,10.65
2022-11-24T16:39:03.584Z,10.74
2022-11-24T16:41:39.545Z,10.89
2022-11-24T16:44:08.987Z,10.84
2022-11-24T16:46:45.346Z,10.63
2022-11-24T16:49:20.169Z,10.84
2022-11-24T16:51:54.027Z,10.67
2022-11-24T16:54:23.996Z,10.68
2022-11-24T16:56:55.719Z,10.81
2022-11-24T16:59:25.780Z,10.66
2022-11-24T17:01:56.738Z,10.70
2022-11-24T17:04:27.160Z,10.68
2022-11-24T17:06:56.032Z,10.80
2022-11-24T17:09:47.436Z,10.50
2022-11-24T17:12:14.988Z,10.54
2022-11-24T17:14:44.358Z,10.46
2022-11-24T17:17:20.021Z,10.36
2022-11-24T17:19:48.506Z,10.38
2022-11-24T17:22:16.065Z,10.48
2022-11-24T17:24:43.665Z,10.33
2022-11-24T17:27:11.201Z,10.41
2022-11-24T17:29:39.113Z,10.15
2022-11-24T17:32:08.270Z,10.19
2022-11-24T17:34:38.016Z,10.15
2022-11-24T17:37:06.131Z,10.07
2022-11-24T17:39:34.466Z,10.31
2022-11-24T17:42:02.459Z,10.20
2022-11-24T17:44:32.340Z,9.85
2022-11-24T17:47:01.175Z,10.06
2022-11-24T17:49:28.755Z,9.95
2022-11-24T17:51:59.354Z,9.94
2022-11-24T17:54:45.993Z,10.04
2022-11-24T17:57:14.659Z,10.09
2022-11-24T17:59:42.121Z,10.16
2022-11-24T18:02:12.410Z,10.09
2022-11-24T18:04:40.480Z,10.16
2022-11-24T18:09:53.296Z,10.11
2022-11-24T18:12:21.521Z,9.98
2022-11-24T18:14:50.554Z,9.95
2022-11-24T18:17:19.250Z,10.06
2022-11-24T18:19:48.926Z,10.14
2022-11-24T18:22:36.605Z,10.29
2022-11-24T18:25:08.222Z,10.24
2022-11-24T18:27:36.441Z,10.21
2022-11-24T18:30:25.377Z,10.34
2022-11-24T18:32:58.523Z,10.41
2022-11-24T18:35:29.094Z,10.57
2022-11-24T18:37:56.778Z,10.66
2022-11-24T18:40:24.534Z,10.52
2022-11-24T18:43:00.903Z,10.36
2022-11-24T18:45:31.740Z,10.44
2022-11-24T18:48:08.399Z,10.46
2022-11-24T18:50:36.899Z,10.54
2022-11-24T18:53:06.332Z,10.37
2022-11-24T18:55:34.691Z,10.30
2022-11-24T18:58:04.126Z,10.46
2022-11-24T19:00:36.214Z,10.55
2022-11-24T19:03:04.523Z,10.48
2022-11-24T19:05:32.254Z,10.62
2022-11-24T19:07:59.929Z,10.65
2022-11-24T19:10:28.041Z,10.62
2022-11-24T19:12:57.055Z,10.67
2022-11-24T19:15:25.326Z,10.47
2022-11-24T19:17:54.186Z,10.39
2022-11-24T19:20:23.355Z,10.48
2022-11-24T19:22:52.519Z,10.45
2022-11-24T19:25:30.776Z,10.55
2022-11-24T19:28:00.889Z,10.56
2022-11-24T19:30:29.462Z,10.51
2022-11-24T19:32:58.156Z,10.50
2022-11-24T19:35:25.729Z,10.45
2022-11-24T19:37:53.957Z,10.41
2022-11-24T19:40:21.532Z,10.51
2022-11-24T19:42:49.306Z,10.32
2022-11-24T19:45:18.494Z,10.36
2022-11-24T19:47:48.618Z,10.32
2022-11-24T19:50:17.069Z,10.20
2022-11-24T19:52:48.361Z,10.47
2022-11-24T19:55:16.664Z,10.58
2022-11-24T19:57:44.316Z,10.66
2022-11-24T20:00:13.154Z,10.58
2022-11-24T20:02:40.896Z,10.43
2022-11-24T20:05:09.005Z,10.44
2022-11-24T20:07:36.715Z,10.53
2022-11-24T20:10:07.975Z,10.63
2022-11-24T20:12:35.813Z,10.56
2022-11-24T20:15:03.586Z,10.40
2022-11-24T20:17:32.905Z,10.30
2022-11-24T20:20:01.110Z,10.57
2022-11-24T20:22:32.167Z,10.47
2022-11-24T20:25:03.402Z,10.36
2022-11-24T20:27:32.010Z,10.41
2022-11-24T20:29:59.995Z,10.54
2022-11-24T20:32:27.688Z,10.53
2022-11-24T20:34:55.762Z,10.41
2022-11-24T20:37:24.121Z,10.32
2022-11-24T20:39:51.716Z,10.29
2022-11-24T20:42:19.316Z,10.24
2022-11-24T20:44:46.843Z,10.22
2022-11-24T20:47:16.451Z,10.27
2022-11-24T20:49:44.054Z,10.25
2022-11-24T20:52:11.761Z,10.21
2022-11-24T20:54:39.299Z,10.21
2022-11-24T20:57:07.523Z,10.23
2022-11-24T20:59:35.157Z,10.25
2022-11-24T21:02:02.731Z,10.24
2022-11-24T21:04:30.340Z,10.26
2022-11-24T21:06:58.094Z,10.42
2022-11-24T21:09:27.273Z,10.56
2022-11-24T21:11:54.943Z,10.41
2022-11-24T21:14:22.434Z,10.35
2022-11-24T21:16:51.377Z,10.41
2022-11-24T21:19:19.259Z,10.15
2022-11-24T21:21:48.830Z,10.24
2022-11-24T21:24:21.659Z,10.27
2022-11-24T21:26:52.258Z,10.54
2022-11-24T21:29:23.778Z,10.42
2022-11-24T21:31:51.797Z,10.26
2022-11-24T21:34:19.593Z,10.36
2022-11-24T21:36:48.076Z,10.05
2022-11-24T21:39:16.696Z,10.35
2022-11-24T21:41:44.515Z,10.25
2022-11-24T21:44:14.138Z,10.25
2022-11-24T21:46:48.111Z,10.50
2022-11-24T21:49:18.715Z,10.59
2022-11-24T21:51:46.243Z,10.32
2022-11-24T21:54:13.765Z,10.08
2022-11-24T21:56:41.817Z,10.01
2022-11-24T21:59:09.516Z,10.15
2022-11-24T22:01:37.034Z,10.25
2022-11-24T22:04:04.825Z,10.23
2022-11-24T22:06:33.319Z,10.27
2022-11-24T22:09:01.042Z,10.14
2022-11-24T22:11:28.480Z,10.02
2022-11-24T22:13:55.939Z,10.14
2022-11-24T22:16:26.186Z,9.92
2022-11-24T22:18:53.978Z,10.27
2022-11-24T22:21:24.467Z,10.04
2022-11-24T22:23:53.896Z,9.92
2022-11-24T22:26:23.810Z,10.19
2022-11-24T22:28:53.000Z,9.96
2022-11-24T22:31:29.568Z,10.15
2022-11-24T22:33:59.956Z,10.12
2022-11-24T22:36:31.319Z,10.42
2022-11-24T22:39:05.200Z,10.07
2022-11-24T22:41:35.205Z,10.20
2022-11-24T22:44:03.338Z,10.03
2022-11-24T22:46:32.822Z,10.28
2022-11-24T22:49:02.236Z,10.02
2022-11-24T22:51:35.000Z,10.18
2022-11-24T22:54:05.615Z,10.12
2022-11-24T22:56:34.429Z,10.43
2022-11-24T22:59:03.289Z,10.10
2022-11-24T23:01:33.711Z,10.22
2022-11-24T23:04:02.460Z,10.09
2022-11-24T23:06:32.706Z,10.02
2022-11-24T23:09:02.034Z,10.01
2022-11-24T23:11:37.401Z,10.27
2022-11-24T23:14:14.017Z,10.18
2022-11-24T23:16:42.302Z,10.40
2022-11-24T23:19:10.227Z,10.22
2022-11-24T23:21:38.816Z,10.15
2022-11-24T23:24:07.827Z,10.08
2022-11-24T23:26:38.868Z,10.14
2022-11-24T23:29:07.692Z,10.04
2022-11-24T23:31:35.596Z,10.03
2022-11-24T23:34:04.756Z,10.07
2022-11-24T23:36:33.513Z,10.15
2022-11-24T23:39:18.813Z,9.99
2022-11-24T23:41:46.312Z,9.89
2022-11-24T23:44:13.741Z,10.15
2022-11-24T23:46:41.244Z,10.19
2022-11-24T23:49:08.748Z,10.10
2022-11-24T23:51:36.249Z,10.27
2022-11-24T23:54:09.651Z,10.30
2022-11-24T23:56:37.981Z,10.38
2022-11-24T23:59:06.155Z,10.32
